Pineville, WV

12:47 AM EST on December 11, 2019 (GMT -0500)
Pineville

Weather History for KI16 - October, 2019

Change the Weather History Date:

Thursday, October 24, 2019

  Actual Average (KBKW) Record (KBKW)
Temperature  
Mean Temperature 52 °F -  
Max Temperature 69 °F 60 °F 82 °F (1947)
Min Temperature 34 °F 42 °F 13 °F (1907)
Degree Days  
Heating Degree Days 14    
Growing Degree Days 2 (Base 50)    
Moisture  
Dew Point 37 °F    
Average Humidity 73    
Maximum Humidity 98    
Minimum Humidity 24    
Precipitation  
Precipitation 0.00 in - - ()
Sea Level Pressure  
Sea Level Pressure 30.32 in    
Wind  
Wind Speed - ()    
Max Wind Speed -    
Max Gust Speed -    
Visibility 10.0 miles    
Events      
Averages and records for this station are not official NWS values.
T = Trace of Precipitation, MM = Missing Value Source: Averaged Metar Reports

Daily Weather History Graph

Daily Weather History Graph

Search for Another Location

Airport or City:

Astronomy

Oct. 24, 2019 Rise Set
Actual Time 7:42 AM EDT 6:37 PM EDT
Civil Twilight 7:16 AM EDT 7:04 PM EDT
Nautical Twilight 6:45 AM EDT 7:34 PM EDT
Astronomical Twilight 6:15 AM EDT 8:04 PM EDT
Moon 3:18 AM EDT (10/24) 4:58 PM EDT (10/24)
Length of Visible Light 11h 47m
Length of Day
10h 54m
Waning Crescent, 17% of the Moon is Illuminated
Oct 24
Waning Crescent
Oct 27
New
Nov 4
First Quarter
Nov 12
Full
Nov 19
Last Quarter

Hourly Weather History & Observations

Time (EDT) Temp. Dew Point Humidity Pressure Visibility Wind Dir Wind Speed Gust Speed Precip Events Conditions
12:15 AM 39.4 °F 36.9 °F 91% 30.29 in 10.0 mi North - - N/A   Clear
12:35 AM 38.7 °F 36.5 °F 92% 30.30 in 10.0 mi North - - N/A   Clear
12:55 AM 38.5 °F 36.1 °F 91% 30.30 in 10.0 mi North - - N/A   Clear
1:15 AM 38.3 °F 36.5 °F 93% 30.30 in 10.0 mi North - - N/A   Clear
1:35 AM 37.8 °F 36.0 °F 93% 30.31 in 10.0 mi North - - N/A   Clear
1:55 AM 37.6 °F 36.0 °F 94% 30.31 in 10.0 mi North - - N/A   Clear
2:15 AM 37.2 °F 35.6 °F 94% 30.30 in 10.0 mi North - - N/A   Clear
2:35 AM 37.0 °F 35.6 °F 95% 30.31 in 10.0 mi North - - N/A   Clear
2:55 AM 37.0 °F 35.6 °F 95% 30.31 in 10.0 mi North - - N/A   Unknown
3:15 AM 36.7 °F 35.4 °F 95% 30.30 in 10.0 mi North - - N/A   Unknown
3:35 AM 36.5 °F 35.1 °F 95% 30.30 in 10.0 mi North - - N/A   Unknown
3:55 AM 36.1 °F 35.1 °F 96% 30.30 in 10.0 mi North - - N/A   Unknown
4:15 AM 36.0 °F 34.9 °F 96% 30.30 in 10.0 mi North - - N/A   Unknown
4:35 AM 35.6 °F 34.7 °F 97% 30.30 in 10.0 mi North - - N/A   Unknown
4:55 AM 35.6 °F 34.7 °F 97% 30.31 in 10.0 mi North - - N/A   Unknown
5:15 AM 35.1 °F 34.2 °F 97% 30.31 in 10.0 mi North - - N/A   Clear
5:35 AM 35.4 °F 34.5 °F 97% 30.32 in 10.0 mi North - - N/A   Clear
5:55 AM 34.9 °F 34.0 °F 97% 30.32 in 10.0 mi North - - N/A   Clear
6:15 AM 35.1 °F 34.3 °F 97% 30.32 in 10.0 mi North - - N/A   Clear
6:35 AM 34.9 °F 34.0 °F 97% 30.32 in 10.0 mi North - - N/A   Clear
6:55 AM 34.7 °F 34.0 °F 97% 30.32 in 10.0 mi North - - N/A   Unknown
7:15 AM 34.7 °F 34.0 °F 97% 30.32 in 10.0 mi North - - N/A   Unknown
7:35 AM 34.9 °F 34.3 °F 98% 30.32 in 10.0 mi North - - N/A   Unknown
7:55 AM 34.3 °F 33.8 °F 98% 30.33 in 10.0 mi North - - N/A   Unknown
8:15 AM 34.7 °F 34.0 °F 97% 30.34 in 10.0 mi North - - N/A   Unknown
8:35 AM 34.9 °F 34.3 °F 98% 30.35 in 10.0 mi North - - N/A   Unknown
8:55 AM 36.3 °F 35.8 °F 98% 30.36 in 10.0 mi North - - N/A   Unknown
9:15 AM 38.8 °F 37.9 °F 97% 30.36 in 10.0 mi North - - N/A   Unknown
9:35 AM 42.1 °F 39.4 °F 90% 30.37 in 10.0 mi North - - N/A   Unknown
9:55 AM 43.9 °F 41.0 °F 90% 30.36 in 10.0 mi North - - N/A   Unknown
10:15 AM 47.5 °F 42.3 °F 82% 30.36 in 10.0 mi North - - N/A   Clear
10:35 AM 49.3 °F 43.2 °F 79% 30.37 in 10.0 mi North - - N/A   Clear
10:55 AM 54.5 °F 38.1 °F 54% 30.37 in 10.0 mi North - - N/A   Clear
11:15 AM 56.7 °F 37.6 °F 49% 30.36 in 10.0 mi North - - N/A   Clear
11:35 AM 59.2 °F 38.8 °F 47% 30.36 in 10.0 mi North - - N/A   Clear
11:55 AM 61.7 °F 39.4 °F 44% 30.36 in 10.0 mi North - - N/A   Clear
12:15 PM 64.0 °F 35.1 °F 34% 30.35 in 10.0 mi North - - N/A   Clear
12:35 PM 65.1 °F 34.5 °F 32% 30.35 in 10.0 mi North - - N/A   Clear
12:55 PM 65.1 °F 35.1 °F 33% 30.34 in 10.0 mi North - - N/A   Clear
1:15 PM 66.6 °F 34.2 °F 30% 30.33 in 10.0 mi North - - N/A   Clear
1:35 PM 66.6 °F 31.8 °F 27% 30.32 in 10.0 mi North - - N/A   Clear
1:55 PM 67.5 °F 31.8 °F 27% 30.31 in 10.0 mi North - - N/A   Clear
2:15 PM 68.0 °F 32.0 °F 26% 30.31 in 10.0 mi North - - N/A   Clear
2:35 PM 68.7 °F 31.3 °F 25% 30.30 in 10.0 mi North - - N/A   Clear
2:55 PM 69.1 °F 31.8 °F 25% 30.30 in 10.0 mi North - - N/A   Clear
3:15 PM 69.1 °F 31.5 °F 25% 30.30 in 10.0 mi North - - N/A   Clear
3:35 PM 69.1 °F 32.4 °F 26% 30.29 in 10.0 mi North - - N/A   Clear
3:55 PM 69.4 °F 31.1 °F 24% 30.29 in 10.0 mi North - - N/A   Clear
4:15 PM 69.6 °F 35.4 °F 28% 30.29 in 10.0 mi North - - N/A   Clear
4:35 PM 67.5 °F 39.7 °F 36% 30.28 in 10.0 mi North - - N/A   Clear
4:55 PM 62.1 °F 41.7 °F 47% 30.28 in 10.0 mi North - - N/A   Clear
5:15 PM 59.4 °F 40.8 °F 50% 30.28 in 10.0 mi North - - N/A   Clear
5:35 PM 58.1 °F 41.9 °F 55% 30.28 in 10.0 mi North - - N/A   Clear
5:55 PM 57.2 °F 43.2 °F 59% 30.28 in 10.0 mi North - - N/A   Clear
6:15 PM 55.9 °F 42.6 °F 61% 30.28 in 10.0 mi North - - N/A   Clear
6:35 PM 55.0 °F 43.0 °F 64% 30.28 in 10.0 mi North - - N/A   Clear
6:55 PM 54.0 °F 43.0 °F 66% 30.29 in 10.0 mi North - - N/A   Clear
7:15 PM 51.8 °F 43.2 °F 72% 30.29 in 10.0 mi North - - N/A   Clear
7:35 PM 50.7 °F 42.8 °F 74% 30.29 in 10.0 mi North - - N/A   Clear
7:55 PM 49.5 °F 41.9 °F 75% 30.30 in 10.0 mi North - - N/A   Clear
8:15 PM 48.9 °F 41.9 °F 77% 30.31 in 10.0 mi North - - N/A   Clear
8:35 PM 47.3 °F 41.4 °F 80% 30.32 in 10.0 mi North - - N/A   Clear
8:55 PM 46.6 °F 41.0 °F 81% 30.32 in 10.0 mi North - - N/A   Clear
9:15 PM 46.0 °F 41.0 °F 83% 30.32 in 10.0 mi North - - N/A   Clear
9:35 PM 45.5 °F 40.6 °F 83% 30.33 in 10.0 mi North - - N/A   Clear
9:55 PM 44.8 °F 40.8 °F 86% 30.33 in 10.0 mi North - - N/A   Clear
10:15 PM 44.6 °F 40.5 °F 85% 30.33 in 10.0 mi North - - N/A   Clear
10:35 PM 43.7 °F 40.3 °F 88% 30.34 in 10.0 mi North - - N/A   Clear
10:55 PM 43.0 °F 39.4 °F 87% 30.34 in 10.0 mi North - - N/A   Clear
11:15 PM 43.7 °F 40.1 °F 87% 30.34 in 10.0 mi North - - N/A   Clear
11:35 PM 43.0 °F 39.7 °F 88% 30.33 in 10.0 mi North - - N/A   Clear
11:55 PM 42.6 °F 39.2 °F 88% 30.34 in 10.0 mi North - - N/A   Clear